South Montrose, Pennsylvania
Current Conditions -  °F | °C
As of 5:53 PM on Thursday 20 Nov 2014 (Local Time) from KBGM Reporting Station
Clear Clear  
Wind Chill: 15°   Ceiling: Unl
Heat Index: 25°   Visibility: 10mi
Dew Point:   Wind: 10mph
Humidity: 46%   Direction: 250°WSW
Pressure: 29.84"   Gusts: NA
Location:  41.8°N, 75.89°W
Report Text: KBGM 202253Z 25009KT 10SM CLR M04/M14 A2984 RMK AO2 SLP125 T10391139
Loading
Personal Weather Stations






























Interactive Weather Map New forecast layout! Learn more

10-Day Weather Forecast

Advertisements
Track Severe Weather on mobile